Aérodrome :
LOGIN :

S'inscrire | Disclaimer

   EN    FR    IT 

 










Légende :    VFR   VFR Marginal   IFR   IFR Intensif   IFR Très Intensif
Visi : 
Plafond : 
>= 8 km
>= 3000ft
5 à 8 km
1000 à 3000 ft
1500m à 5 km
500 à 1000 ft
800 à 1500m
200 à 500 ft
< 800m
< 200 ft
Symboles :   Orages  Brouillard  Fortes neiges  Fortes précipitations  Vent > 20 kt
SIGMETs :   Divers  Orages  Givrage  Turbulence  Onde Orograph.  Cendres Volcan.






- Altitude de l'aérodrome : 600 ft
- Code IATA : VIE


LOWW - Vienna Schwechat

DERNIER METAR :
  • 182050Z 33003KT 6000 FEW014 SCT026 BKN034 M01/M01 Q1026 R11/690195 R16///99// NOSIG

METARs EXPIRÉS :
  • 182020Z 33003KT 6000 FEW005 SCT024 BKN070 M01/M02 Q1026 R88/690195 NOSIG
  • 181950Z 33004KT 5000 BR FEW005 BKN026 M01/M02 Q1026 R88/690195 TEMPO 4000 BR BKN006
  • 181920Z 32005KT 5000 -FZRA BR FEW004 BKN006 M01/M02 Q1026 R88/690195 TEMPO NSW SCT006 BKN030
  • 181850Z 34002KT 5000 -FZRA BR FEW003 OVC007 M01/M02 Q1026 R88/690195 TEMPO 4000 -SN BR BKN005
  • 181820Z 34002KT 6000 -FZRA FEW003 BKN007 M01/M02 Q1026 R88/690195 TEMPO 4000 -SN BR BKN004

TAF TAF LOWW
Valide du 18 à 21h jusqu'au 20 à 03h UTC


182015Z 1821/2003 33008KT 9000 BKN020 TX02/1902Z TNM01/1821Z
PROB30
TEMPO 1821/1823 4000 -FZRASN BR BKN005
TEMPO 1823/1918 -RA FEW007 BKN010
PROB30
TEMPO 1908/1917 3000 SNRA BKN007
TEMPO 1917/2003 BKN010



MET'MAP, la Météo Aéronautique d'un coup d'oeil ! - Copyright ORBIFLY Décembre 2007 - Disclaimer

ORBIFLY MET'MAP TEAM :

Programmation & Développement : Alexandra Zaïnal
Sur une idée originale de : Baudouin d'Aumeries
Assistance à la programmation : Marc-Olivier Méhu
Soutien technique & logistique : Manuel Goepfert

Contact : metmap@orbifly.com




SOURCES & CREDITS :

   NOAA